Time;durP1;ratioP1;P1;durP2;ratioP2;P2;SDS_P1;SDS_P2;PMS_P1;PMS_P2;Temp;Humidity;BMP_temperature;BMP_pressure;BME280_temperature;BME280_humidity;BME280_pressure;Samples;Min_cycle;Max_cycle;Signal;HPM_P1;HPM_P2
2022/04/05 00:01:59;;;;;;;6.27;3.97;;;;;8.40;99754.00;;;;5014521;28;20824;-67
2022/04/05 00:04:46;;;;;;;5.80;3.77;;;;;8.30;99756.00;;;;5016349;28;20345;-65
2022/04/05 00:07:34;;;;;;;5.90;3.53;;;;;8.30;99754.00;;;;5013762;28;20233;-68
2022/04/05 00:10:21;;;;;;;5.00;2.90;;;;;8.30;99752.00;;;;5015443;28;20317;-68
2022/04/05 00:13:07;;;;;;;5.00;3.00;;;;;8.20;99749.00;;;;5015200;28;20304;-67
2022/04/05 00:15:54;;;;;;;3.33;2.70;;;;;8.20;99751.00;;;;5041132;28;20221;-69
2022/04/05 00:18:40;;;;;;;5.40;3.47;;;;;8.20;99751.00;;;;5033164;28;20233;-68
2022/04/05 00:21:26;;;;;;;3.77;2.57;;;;;8.10;99759.00;;;;5038842;28;20229;-67
2022/04/05 00:24:14;;;;;;;3.93;2.73;;;;;8.10;99761.00;;;;5030757;28;20275;-66
2022/04/05 00:27:01;;;;;;;3.33;2.57;;;;;8.10;99764.00;;;;5026395;28;20849;-67
2022/04/05 00:29:47;;;;;;;4.53;2.33;;;;;8.10;99767.00;;;;5025505;28;20229;-68
2022/04/05 00:32:34;;;;;;;3.37;2.27;;;;;8.20;99768.00;;;;5035329;28;20721;-69
2022/04/05 00:35:21;;;;;;;3.43;2.17;;;;;8.10;99766.00;;;;5039238;28;20299;-68
2022/04/05 00:38:09;;;;;;;2.97;1.80;;;;;8.10;99764.00;;;;5029032;28;20233;-68
2022/04/05 00:40:56;;;;;;;4.10;2.40;;;;;8.00;99765.00;;;;5022801;28;20251;-68
2022/04/05 00:43:43;;;;;;;2.63;2.00;;;;;8.10;99770.00;;;;5035303;28;20228;-69
2022/04/05 00:46:29;;;;;;;3.87;2.07;;;;;8.00;99782.00;;;;5039508;28;20248;-71
2022/04/05 00:49:20;;;;;;;3.93;2.27;;;;;8.00;99779.00;;;;5025984;28;20226;-67
2022/04/05 00:52:07;;;;;;;2.90;2.20;;;;;8.10;99783.00;;;;5030553;28;20236;-67
2022/04/05 00:54:53;;;;;;;1.70;1.60;;;;;8.20;99770.00;;;;5037776;28;20233;-68
2022/04/05 00:57:41;;;;;;;2.33;1.73;;;;;8.20;99770.00;;;;5037219;28;20295;-68
2022/04/05 01:00:27;;;;;;;2.20;1.90;;;;;8.10;99775.00;;;;5035845;28;20292;-70
2022/04/05 01:03:14;;;;;;;2.53;1.63;;;;;8.10;99782.00;;;;5036395;28;20236;-69
2022/04/05 01:06:04;;;;;;;2.10;1.53;;;;;8.00;99781.00;;;;5028337;28;20356;-67
2022/04/05 01:08:51;;;;;;;2.03;1.37;;;;;8.00;99779.00;;;;5030359;28;20291;-67
2022/04/05 01:11:38;;;;;;;1.50;1.40;;;;;8.00;99788.00;;;;5035529;28;20244;-66
2022/04/05 01:14:26;;;;;;;1.83;1.67;;;;;8.00;99795.00;;;;5043403;28;20240;-67
2022/04/05 01:17:14;;;;;;;1.63;1.53;;;;;7.90;99803.00;;;;5036293;28;20225;-68
2022/04/05 01:20:01;;;;;;;2.43;1.73;;;;;7.90;99802.00;;;;5029744;28;20248;-69
2022/04/05 01:22:48;;;;;;;1.97;1.60;;;;;7.90;99798.00;;;;5039317;28;20233;-70
2022/04/05 01:25:36;;;;;;;2.53;1.73;;;;;7.80;99804.00;;;;5035089;28;20623;-70
2022/04/05 01:28:23;;;;;;;1.83;1.60;;;;;7.90;99819.00;;;;5040841;28;20257;-69
2022/04/05 01:31:09;;;;;;;1.43;1.20;;;;;7.80;99824.00;;;;5032147;28;20303;-69
2022/04/05 01:33:56;;;;;;;2.43;1.43;;;;;7.80;99822.00;;;;5011905;28;20680;-67
2022/04/05 01:36:43;;;;;;;1.57;1.43;;;;;8.00;99826.00;;;;5009976;28;20241;-68
2022/04/05 01:39:31;;;;;;;2.33;1.47;;;;;7.80;99827.00;;;;5008939;28;20238;-71
2022/04/05 01:42:19;;;;;;;2.37;1.40;;;;;7.80;99836.00;;;;5034678;28;20241;-68
2022/04/05 01:45:07;;;;;;;1.27;1.17;;;;;7.80;99827.00;;;;5033417;28;20232;-67
2022/04/05 01:47:53;;;;;;;1.40;1.30;;;;;7.90;99825.00;;;;5037600;28;20226;-68
2022/04/05 01:50:39;;;;;;;1.50;1.40;;;;;8.00;99830.00;;;;5038388;28;20226;-67
2022/04/05 01:53:25;;;;;;;1.50;1.40;;;;;7.90;99831.00;;;;5037730;28;20251;-69
2022/04/05 01:56:12;;;;;;;1.90;1.20;;;;;7.80;99836.00;;;;5041712;28;20228;-67
2022/04/05 01:59:00;;;;;;;1.30;1.20;;;;;7.80;99833.00;;;;5035914;28;20228;-68
2022/04/05 02:01:47;;;;;;;1.20;1.10;;;;;7.80;99826.00;;;;5042464;28;20236;-67
2022/04/05 02:04:33;;;;;;;1.13;1.00;;;;;7.80;99817.00;;;;5034758;28;20802;-67
2022/04/05 02:07:21;;;;;;;2.83;1.13;;;;;7.70;99823.00;;;;5029365;28;20797;-68
2022/04/05 02:10:07;;;;;;;1.30;1.20;;;;;7.80;99826.00;;;;5037697;28;20225;-67
2022/04/05 02:12:53;;;;;;;1.40;1.30;;;;;7.80;99821.00;;;;5044280;28;20230;-67
2022/04/05 02:15:41;;;;;;;1.57;1.20;;;;;7.70;99822.00;;;;5035317;28;20228;-67
2022/04/05 02:18:27;;;;;;;1.30;1.20;;;;;7.70;99821.00;;;;5029457;28;20635;-67
2022/04/05 02:21:14;;;;;;;1.23;1.10;;;;;7.80;99806.00;;;;5040336;28;20244;-67
2022/04/05 02:24:00;;;;;;;1.20;1.10;;;;;7.80;99788.00;;;;5023643;28;20233;-69
2022/04/05 02:26:47;;;;;;;1.20;1.10;;;;;7.70;99784.00;;;;5031346;28;21012;-67
2022/04/05 02:29:34;;;;;;;1.07;1.00;;;;;7.80;99827.00;;;;5039364;28;20302;-69
2022/04/05 02:32:22;;;;;;;1.10;1.00;;;;;7.80;99828.00;;;;5037127;28;20236;-67
2022/04/05 02:35:10;;;;;;;1.23;1.10;;;;;7.80;99827.00;;;;5027048;28;20227;-67
2022/04/05 02:37:59;;;;;;;1.43;1.33;;;;;7.60;99829.00;;;;5036749;28;20224;-67
2022/04/05 02:40:46;;;;;;;1.43;1.20;;;;;7.70;99826.00;;;;5034579;28;20725;-68
2022/04/05 02:43:32;;;;;;;1.70;1.40;;;;;7.70;99827.00;;;;5040988;28;20299;-67
2022/04/05 02:46:18;;;;;;;1.37;1.27;;;;;7.60;99826.00;;;;5037300;28;20565;-68
2022/04/05 02:49:06;;;;;;;2.33;1.63;;;;;7.70;99827.00;;;;5022852;28;20228;-67
2022/04/05 02:51:52;;;;;;;2.20;1.43;;;;;7.60;99833.00;;;;5039043;28;20248;-68
2022/04/05 02:54:38;;;;;;;2.20;1.80;;;;;7.70;99828.00;;;;5035487;28;20235;-67
2022/04/05 02:57:25;;;;;;;2.10;1.50;;;;;7.70;99832.00;;;;5042458;28;20229;-67
2022/04/05 03:00:13;;;;;;;4.17;2.07;;;;;7.80;99832.00;;;;5026778;28;20759;-67
2022/04/05 03:02:59;;;;;;;2.57;1.90;;;;;7.80;99839.00;;;;5025034;28;20241;-66
2022/04/05 03:05:47;;;;;;;2.87;2.27;;;;;7.70;99833.00;;;;5038640;28;20253;-67
2022/04/05 03:08:33;;;;;;;2.37;2.00;;;;;7.80;99826.00;;;;5030093;28;20227;-68
2022/04/05 03:11:19;;;;;;;2.53;2.03;;;;;7.80;99826.00;;;;5040474;28;20363;-67
2022/04/05 03:14:06;;;;;;;3.57;2.57;;;;;7.80;99824.00;;;;5036393;28;20225;-67
2022/04/05 03:16:52;;;;;;;2.00;1.77;;;;;7.80;99832.00;;;;5041173;28;20704;-68
2022/04/05 03:19:39;;;;;;;3.50;2.30;;;;;7.80;99826.00;;;;5025581;28;20293;-67
2022/04/05 03:22:26;;;;;;;3.90;2.43;;;;;7.80;99827.00;;;;5038228;28;20234;-67
2022/04/05 03:25:13;;;;;;;3.87;2.20;;;;;7.70;99827.00;;;;5025982;28;20233;-67
2022/04/05 03:28:01;;;;;;;2.80;2.10;;;;;7.70;99823.00;;;;5040467;28;20717;-66
2022/04/05 03:30:47;;;;;;;2.43;1.90;;;;;7.70;99832.00;;;;5035607;28;20593;-68
2022/04/05 03:33:34;;;;;;;3.67;2.27;;;;;7.70;99835.00;;;;5035288;28;20307;-66
2022/04/05 03:36:20;;;;;;;2.43;1.80;;;;;7.80;99843.00;;;;5033653;28;20236;-67
2022/04/05 03:39:08;;;;;;;2.07;1.80;;;;;7.70;99843.00;;;;5042365;28;20290;-68
2022/04/05 03:41:54;;;;;;;3.27;2.17;;;;;7.60;99833.00;;;;5035339;28;20275;-66
2022/04/05 03:44:40;;;;;;;2.70;2.03;;;;;7.60;99842.00;;;;5022664;28;20228;-66
2022/04/05 03:47:27;;;;;;;1.90;1.63;;;;;7.70;99836.00;;;;5014887;28;20697;-67
2022/04/05 03:50:13;;;;;;;2.53;1.93;;;;;7.70;99844.00;;;;5018171;28;20292;-67
2022/04/05 03:53:01;;;;;;;4.27;2.00;;;;;7.70;99848.00;;;;5030133;28;20589;-67
2022/04/05 03:55:48;;;;;;;3.27;2.40;;;;;7.70;99851.00;;;;5038997;28;20228;-66
2022/04/05 03:58:35;;;;;;;2.60;1.83;;;;;7.60;99854.00;;;;5034995;28;20233;-67
2022/04/05 04:01:21;;;;;;;2.57;1.83;;;;;7.70;99858.00;;;;5034078;28;20787;-68
2022/04/05 04:04:08;;;;;;;2.97;2.20;;;;;7.70;99855.00;;;;5025621;28;20220;-67
2022/04/05 04:06:54;;;;;;;3.40;2.00;;;;;7.60;99853.00;;;;5034071;28;20216;-66
2022/04/05 04:09:40;;;;;;;2.20;2.00;;;;;7.70;99851.00;;;;5039707;28;21070;-69
2022/04/05 04:12:28;;;;;;;2.20;1.97;;;;;7.70;99851.00;;;;5032065;28;20304;-69
2022/04/05 04:15:15;;;;;;;3.10;2.20;;;;;7.70;99846.00;;;;5031600;28;20602;-67
2022/04/05 04:18:01;;;;;;;2.90;1.90;;;;;7.60;99840.00;;;;5025285;28;20367;-66
2022/04/05 04:20:48;;;;;;;3.20;2.40;;;;;7.60;99845.00;;;;5032216;28;20232;-67
2022/04/05 04:23:35;;;;;;;2.10;1.80;;;;;7.60;99844.00;;;;5038393;28;20365;-68
2022/04/05 04:26:21;;;;;;;3.60;2.03;;;;;7.60;99836.00;;;;5037192;28;20339;-66
2022/04/05 04:29:09;;;;;;;3.10;1.93;;;;;7.60;99848.00;;;;5030102;28;20225;-67
2022/04/05 04:31:56;;;;;;;4.47;2.20;;;;;7.70;99855.00;;;;5042008;28;20236;-70
2022/04/05 04:34:42;;;;;;;2.73;2.00;;;;;7.60;99854.00;;;;5033672;28;20265;-69
2022/04/05 04:37:28;;;;;;;2.23;2.00;;;;;7.70;99855.00;;;;5039677;28;20217;-66
2022/04/05 04:40:14;;;;;;;3.27;2.20;;;;;7.70;99856.00;;;;5031276;28;20233;-68
2022/04/05 04:43:01;;;;;;;4.47;2.47;;;;;7.60;99860.00;;;;5042352;28;20294;-67
2022/04/05 04:45:48;;;;;;;3.27;2.20;;;;;7.70;99858.00;;;;5035588;28;20300;-69
2022/04/05 04:48:35;;;;;;;3.80;2.10;;;;;7.70;99844.00;;;;5037468;28;20734;-66
2022/04/05 04:51:21;;;;;;;2.93;2.23;;;;;7.70;99860.00;;;;5043501;28;20232;-65
2022/04/05 04:54:08;;;;;;;3.07;2.20;;;;;7.70;99847.00;;;;5034414;28;20234;-66
2022/04/05 04:56:54;;;;;;;2.37;1.73;;;;;7.70;99859.00;;;;5044322;28;20267;-67
2022/04/05 04:59:40;;;;;;;3.60;2.27;;;;;7.70;99857.00;;;;5026256;28;20229;-66
2022/04/05 05:02:27;;;;;;;5.23;2.90;;;;;7.70;99859.00;;;;5042199;28;20240;-66
2022/04/05 05:05:16;;;;;;;2.80;1.70;;;;;7.70;99861.00;;;;5040498;28;20480;-65
2022/04/05 05:08:03;;;;;;;3.10;2.10;;;;;7.70;99859.00;;;;5028472;28;20732;-66
2022/04/05 05:10:49;;;;;;;3.27;2.27;;;;;7.80;99861.00;;;;5025553;28;20879;-69
2022/04/05 05:13:36;;;;;;;4.97;2.33;;;;;7.70;99865.00;;;;5043753;28;20764;-67
2022/04/05 05:16:22;;;;;;;6.23;2.60;;;;;7.70;99869.00;;;;5041991;28;20228;-66
2022/04/05 05:19:10;;;;;;;4.57;1.90;;;;;7.70;99871.00;;;;5023846;28;20726;-67
2022/04/05 05:21:56;;;;;;;3.37;2.30;;;;;7.70;99868.00;;;;5024305;28;20228;-66
2022/04/05 05:24:43;;;;;;;2.70;2.33;;;;;7.70;99882.00;;;;5043696;28;20783;-67
2022/04/05 05:27:29;;;;;;;3.00;2.13;;;;;7.70;99882.00;;;;5037883;28;20275;-67
2022/04/05 05:30:15;;;;;;;4.93;3.03;;;;;7.70;99876.00;;;;5026742;28;20240;-66
2022/04/05 05:33:01;;;;;;;2.80;2.10;;;;;7.80;99878.00;;;;5026225;28;20361;-68
2022/04/05 05:35:49;;;;;;;6.27;2.90;;;;;7.80;99885.00;;;;5038567;28;20232;-67
2022/04/05 05:38:36;;;;;;;3.57;2.50;;;;;7.80;99881.00;;;;5025328;28;20280;-68
2022/04/05 05:41:22;;;;;;;4.00;2.47;;;;;7.80;99885.00;;;;5039436;28;20753;-63
2022/04/05 05:44:08;;;;;;;4.67;2.77;;;;;7.80;99880.00;;;;5029489;28;20700;-66
2022/04/05 05:46:55;;;;;;;3.93;2.20;;;;;7.80;99882.00;;;;5039637;28;20236;-68
2022/04/05 05:49:41;;;;;;;3.70;2.70;;;;;7.80;99875.00;;;;5039950;28;20307;-67
2022/04/05 05:52:29;;;;;;;3.83;2.60;;;;;7.90;99874.00;;;;5030552;28;20305;-66
2022/04/05 05:55:17;;;;;;;3.10;2.33;;;;;7.90;99879.00;;;;5031593;28;20596;-68
2022/04/05 05:58:04;;;;;;;3.90;2.90;;;;;7.90;99845.00;;;;5035404;28;20228;-67
2022/04/05 06:00:52;;;;;;;4.20;2.57;;;;;8.00;99870.00;;;;5036064;28;20939;-66
2022/04/05 06:03:38;;;;;;;3.70;2.73;;;;;8.00;99872.00;;;;5039999;28;20375;-67
2022/04/05 06:06:24;;;;;;;3.63;2.33;;;;;8.10;99879.00;;;;5039364;28;20228;-68
2022/04/05 06:09:12;;;;;;;4.23;2.60;;;;;8.10;99881.00;;;;5027422;28;20232;-68
2022/04/05 06:11:58;;;;;;;4.83;2.70;;;;;8.10;99881.00;;;;5035249;28;20287;-69
2022/04/05 06:14:44;;;;;;;6.53;3.17;;;;;8.10;99877.00;;;;5042504;28;20233;-68
2022/04/05 06:17:30;;;;;;;7.53;2.73;;;;;8.10;99884.00;;;;5036078;28;20590;-66
2022/04/05 06:20:18;;;;;;;3.97;2.70;;;;;8.10;99879.00;;;;5033762;28;20695;-66
2022/04/05 06:23:05;;;;;;;6.27;3.30;;;;;8.20;99874.00;;;;5018515;28;20275;-68
2022/04/05 06:25:53;;;;;;;5.43;3.10;;;;;8.30;99875.00;;;;5012798;28;20237;-69
2022/04/05 06:28:40;;;;;;;4.27;3.13;;;;;8.40;99876.00;;;;5012375;28;20232;-68
2022/04/05 06:31:26;;;;;;;7.53;3.33;;;;;8.40;99881.00;;;;5014714;28;20253;-66
2022/04/05 06:34:12;;;;;;;6.07;3.80;;;;;8.40;99886.00;;;;5027738;28;20229;-68
2022/04/05 06:36:59;;;;;;;6.00;3.43;;;;;8.30;99880.00;;;;5031259;28;20225;-66
2022/04/05 06:39:46;;;;;;;4.73;3.50;;;;;8.40;99891.00;;;;5034380;28;20234;-68
2022/04/05 06:42:33;;;;;;;5.77;3.90;;;;;8.40;99885.00;;;;5040586;28;20235;-67
2022/04/05 06:45:22;;;;;;;6.33;3.87;;;;;8.50;99886.00;;;;5033666;28;20600;-68
2022/04/05 06:48:09;;;;;;;6.37;3.77;;;;;8.50;99889.00;;;;5041781;28;20248;-71
2022/04/05 06:50:55;;;;;;;5.27;3.20;;;;;8.50;99894.00;;;;5036802;28;20723;-68
2022/04/05 06:53:42;;;;;;;4.20;3.03;;;;;8.50;99888.00;;;;5039469;28;20229;-66
2022/04/05 06:56:28;;;;;;;7.20;3.40;;;;;8.60;99882.00;;;;5035209;28;20227;-69
2022/04/05 06:59:16;;;;;;;4.40;3.10;;;;;8.70;99888.00;;;;5026656;28;20305;-66
2022/04/05 07:02:02;;;;;;;7.60;3.70;;;;;8.80;99892.00;;;;5014923;28;20636;-68
2022/04/05 07:04:49;;;;;;;5.03;3.20;;;;;8.80;99883.00;;;;5034272;28;20304;-66
2022/04/05 07:07:36;;;;;;;4.77;2.90;;;;;8.90;99878.00;;;;5039719;28;20272;-69
2022/04/05 07:10:23;;;;;;;4.37;2.87;;;;;8.80;99877.00;;;;5035386;28;20429;-68
2022/04/05 07:13:10;;;;;;;5.03;3.10;;;;;8.80;99883.00;;;;5031493;28;20240;-68
2022/04/05 07:15:57;;;;;;;4.03;2.80;;;;;8.90;99876.00;;;;5038831;28;20236;-68
2022/04/05 07:18:44;;;;;;;4.93;3.23;;;;;8.90;99885.00;;;;5036933;28;20536;-71
2022/04/05 07:21:30;;;;;;;3.57;2.53;;;;;9.00;99846.00;;;;5040052;28;20285;-68
2022/04/05 07:24:19;;;;;;;3.10;2.47;;;;;9.00;99873.00;;;;5040391;28;20772;-68
2022/04/05 07:27:05;;;;;;;4.53;2.60;;;;;9.00;99865.00;;;;5029494;28;20647;-68
2022/04/05 07:29:51;;;;;;;3.40;2.13;;;;;9.00;99869.00;;;;5034549;28;20245;-68
2022/04/05 07:32:40;;;;;;;3.53;2.30;;;;;9.10;99865.00;;;;5037398;28;20315;-68
2022/04/05 07:35:26;;;;;;;3.70;2.40;;;;;9.10;99876.00;;;;5035228;28;20233;-68
2022/04/05 07:38:13;;;;;;;4.37;2.67;;;;;9.10;99863.00;;;;5032462;28;20711;-68
2022/04/05 07:41:00;;;;;;;3.23;2.23;;;;;9.20;99859.00;;;;5033989;28;20225;-67
2022/04/05 07:43:46;;;;;;;4.60;2.30;;;;;9.20;99855.00;;;;5040380;28;20959;-69
2022/04/05 07:46:32;;;;;;;3.60;2.53;;;;;9.10;99870.00;;;;5040792;28;20230;-67
2022/04/05 07:49:20;;;;;;;4.13;2.53;;;;;9.20;99858.00;;;;5032216;28;20237;-68
2022/04/05 07:52:06;;;;;;;3.07;2.10;;;;;9.20;99868.00;;;;5022517;28;20241;-67
2022/04/05 07:54:52;;;;;;;3.30;2.17;;;;;9.20;99864.00;;;;5038803;28;20697;-67
2022/04/05 07:57:40;;;;;;;3.33;2.40;;;;;9.30;99870.00;;;;5035695;28;20801;-67
2022/04/05 08:00:28;;;;;;;3.27;2.20;;;;;9.20;99873.00;;;;5034065;28;20743;-69
2022/04/05 08:03:14;;;;;;;4.03;2.57;;;;;9.20;99872.00;;;;5031719;28;20249;-67
2022/04/05 08:06:02;;;;;;;3.27;2.27;;;;;9.20;99868.00;;;;5021571;28;20234;-67
2022/04/05 08:08:48;;;;;;;3.60;2.20;;;;;9.20;99865.00;;;;5038189;28;20317;-69
2022/04/05 08:11:44;;;;;;;4.70;2.30;;;;;9.30;99870.00;;;;5037149;28;20368;-66
2022/04/05 08:14:31;;;;;;;3.20;2.50;;;;;9.20;99855.00;;;;5039142;28;20679;-67
2022/04/05 08:17:17;;;;;;;4.20;2.50;;;;;9.20;99854.00;;;;5032132;28;20363;-67
2022/04/05 08:20:05;;;;;;;4.53;2.33;;;;;9.30;99865.00;;;;5027573;28;20233;-67
2022/04/05 08:22:52;;;;;;;4.93;2.57;;;;;9.40;99860.00;;;;5033588;28;20238;-69
2022/04/05 08:25:39;;;;;;;3.73;2.63;;;;;9.30;99870.00;;;;5025754;28;20225;-69
2022/04/05 08:28:26;;;;;;;3.63;2.33;;;;;9.30;99869.00;;;;5022778;28;20227;-70
2022/04/05 08:31:12;;;;;;;4.27;3.07;;;;;9.40;99869.00;;;;5034416;28;20234;-67
2022/04/05 08:33:58;;;;;;;3.47;2.70;;;;;9.50;99878.00;;;;5033596;28;20301;-69
2022/04/05 08:36:44;;;;;;;4.27;2.90;;;;;9.40;99869.00;;;;5039879;28;20356;-70
2022/04/05 08:39:32;;;;;;;5.37;3.10;;;;;9.40;99871.00;;;;5022870;28;20278;-69
2022/04/05 08:42:18;;;;;;;6.03;3.70;;;;;9.40;99875.00;;;;5014144;28;20237;-71
2022/04/05 08:45:10;;;;;;;5.93;3.23;;;;;9.50;99871.00;;;;5015042;28;20866;-67
2022/04/05 08:47:58;;;;;;;8.10;4.10;;;;;9.60;99870.00;;;;5009691;28;20234;-67
2022/04/05 08:50:44;;;;;;;9.50;4.93;;;;;9.70;99882.00;;;;5013174;28;20338;-68
2022/04/05 08:53:33;;;;;;;9.87;5.07;;;;;9.90;99857.00;;;;5008479;28;20248;-68
2022/04/05 08:56:21;;;;;;;9.90;5.90;;;;;10.00;99869.00;;;;5017235;28;20263;-69
2022/04/05 08:59:07;;;;;;;10.47;6.13;;;;;10.10;99866.00;;;;5011673;28;20582;-68
2022/04/05 09:01:53;;;;;;;10.73;5.70;;;;;10.30;99874.00;;;;5028480;28;20238;-68
2022/04/05 09:04:40;;;;;;;12.60;5.63;;;;;10.30;99872.00;;;;5040045;28;20757;-68
2022/04/05 09:07:30;;;;;;;10.23;6.00;;;;;10.50;99876.00;;;;5044253;28;20263;-68
2022/04/05 09:10:19;;;;;;;9.70;5.37;;;;;10.40;99881.00;;;;5035029;28;20313;-68
2022/04/05 09:13:10;;;;;;;8.87;5.23;;;;;10.40;99878.00;;;;5032795;28;20232;-68
2022/04/05 09:15:59;;;;;;;9.23;5.90;;;;;10.50;99880.00;;;;5038403;28;20237;-69
2022/04/05 09:18:46;;;;;;;8.60;5.47;;;;;10.50;99875.00;;;;5019191;28;20232;-67
2022/04/05 09:21:51;;;;;;;10.70;6.17;;;;;10.50;99882.00;;;;5030375;28;20314;-67
2022/04/05 09:24:39;;;;;;;10.47;6.30;;;;;10.70;99877.00;;;;5038256;28;20610;-71
2022/04/05 09:27:26;;;;;;;14.23;6.00;;;;;10.80;99879.00;;;;5011541;28;20232;-69
2022/04/05 09:30:16;;;;;;;11.87;6.37;;;;;10.90;99885.00;;;;5008818;28;20800;-69
2022/04/05 09:33:04;;;;;;;14.90;6.53;;;;;10.90;99887.00;;;;5017182;28;20248;-67
2022/04/05 09:35:55;;;;;;;9.90;6.10;;;;;10.90;99885.00;;;;5013505;28;20276;-68
2022/04/05 09:38:43;;;;;;;12.40;6.43;;;;;10.80;99883.00;;;;5021787;28;20236;-66
2022/04/05 09:41:29;;;;;;;9.73;5.87;;;;;10.90;99896.00;;;;5020444;28;20236;-66
2022/04/05 09:44:26;;;;;;;8.50;5.47;;;;;10.80;99885.00;;;;5018459;28;20624;-68
2022/04/05 09:47:17;;;;;;;7.77;4.60;;;;;10.80;99891.00;;;;5011266;28;20233;-68
2022/04/05 09:50:04;;;;;;;11.87;6.03;;;;;11.00;99894.00;;;;5013397;28;20245;-68
2022/04/05 09:52:50;;;;;;;10.20;5.93;;;;;11.10;99898.00;;;;5012244;28;20288;-67
2022/04/05 09:55:36;;;;;;;10.07;5.60;;;;;11.20;99909.00;;;;5036303;28;20248;-70
2022/04/05 09:58:23;;;;;;;9.77;4.93;;;;;11.30;99889.00;;;;5027792;28;20282;-70
2022/04/05 10:01:11;;;;;;;8.03;5.30;;;;;11.40;99889.00;;;;5037773;28;20305;-69
2022/04/05 10:04:02;;;;;;;10.00;5.47;;;;;11.70;99901.00;;;;5033987;28;20291;-69
2022/04/05 10:06:49;;;;;;;9.07;4.93;;;;;11.70;99896.00;;;;5013402;28;20229;-72
2022/04/05 10:09:35;;;;;;;9.33;5.30;;;;;11.80;99911.00;;;;5020166;28;20225;-67
2022/04/05 10:12:22;;;;;;;7.23;4.97;;;;;11.90;99901.00;;;;5018765;28;20233;-67
2022/04/05 10:15:09;;;;;;;8.03;5.03;;;;;11.90;99908.00;;;;5025708;28;20232;-68
2022/04/05 10:17:58;;;;;;;9.10;4.80;;;;;11.90;99905.00;;;;5021962;28;20228;-69
2022/04/05 10:20:48;;;;;;;7.60;4.97;;;;;12.10;99899.00;;;;5022861;28;20311;-68
2022/04/05 10:23:35;;;;;;;8.97;5.27;;;;;12.40;99891.00;;;;5020916;28;20309;-66
2022/04/05 10:26:24;;;;;;;9.53;4.83;;;;;12.20;99898.00;;;;5027636;28;20225;-68
2022/04/05 10:29:15;;;;;;;7.30;4.63;;;;;12.40;99902.00;;;;5024306;28;20238;-67
2022/04/05 10:32:05;;;;;;;7.43;4.47;;;;;12.50;99909.00;;;;5018550;28;21474;-66
2022/04/05 10:34:57;;;;;;;6.23;4.70;;;;;12.40;99898.00;;;;5019095;28;20233;-68
2022/04/05 10:37:45;;;;;;;7.27;4.07;;;;;12.80;99899.00;;;;5015208;28;20300;-72
2022/04/05 10:40:31;;;;;;;6.60;4.57;;;;;12.90;99903.00;;;;5021439;28;20225;-67
2022/04/05 10:43:20;;;;;;;6.20;4.30;;;;;13.20;99901.00;;;;5013981;28;20232;-67
2022/04/05 10:46:08;;;;;;;7.07;4.60;;;;;13.20;99891.00;;;;5013076;28;20653;-67
2022/04/05 10:48:56;;;;;;;5.83;4.63;;;;;13.40;99901.00;;;;5013473;28;20378;-69
2022/04/05 10:52:09;;;;;;;5.63;4.07;;;;;13.40;99879.00;;;;5017999;28;20368;-67
2022/04/05 10:55:08;;;;;;;7.47;4.53;;;;;13.60;99889.00;;;;5018357;28;20236;-68
2022/04/05 10:58:09;;;;;;;6.13;3.83;;;;;13.80;99903.00;;;;5017594;28;20240;-70
2022/04/05 11:01:12;;;;;;;5.97;4.00;;;;;13.50;99891.00;;;;5014479;28;20836;-67
2022/04/05 11:04:32;;;;;;;6.67;4.07;;;;;13.20;99882.00;;;;5010553;28;20236;-67
2022/04/05 11:07:19;;;;;;;7.13;3.90;;;;;13.10;99899.00;;;;5034688;28;20718;-67
2022/04/05 11:10:07;;;;;;;5.07;3.70;;;;;13.00;99879.00;;;;5031013;28;20861;-68
2022/04/05 11:13:03;;;;;;;4.53;4.03;;;;;13.00;99868.00;;;;5041157;28;20290;-67
2022/04/05 11:15:53;;;;;;;5.73;4.27;;;;;12.90;99882.00;;;;5034369;28;20240;-66
2022/04/05 11:18:43;;;;;;;6.30;4.47;;;;;12.80;99876.00;;;;5040852;28;21152;-68
2022/04/05 11:21:30;;;;;;;5.77;4.43;;;;;12.60;99886.00;;;;5038264;28;20914;-68
2022/04/05 11:24:51;;;;;;;4.93;3.90;;;;;12.50;99889.00;;;;5032166;28;20237;-68
2022/04/05 11:27:46;;;;;;;7.17;4.30;;;;;12.50;99885.00;;;;5033021;28;20240;-66
2022/04/05 11:30:56;;;;;;;5.57;4.00;;;;;12.80;99840.00;;;;5019750;28;20249;-69
2022/04/05 11:33:45;;;;;;;7.27;3.90;;;;;12.90;99886.00;;;;5007738;28;20250;-67
2022/04/05 11:36:43;;;;;;;5.90;3.83;;;;;13.10;99878.00;;;;5037950;28;20243;-67
2022/04/05 11:39:30;;;;;;;9.40;3.60;;;;;13.30;99879.00;;;;5028628;28;21007;-71
2022/04/05 11:42:17;;;;;;;6.20;3.30;;;;;13.30;99889.00;;;;5034379;28;20236;-68
2022/04/05 11:45:08;;;;;;;4.33;3.30;;;;;13.20;99885.00;;;;5009209;28;20229;-68
2022/04/05 11:47:55;;;;;;;6.27;3.43;;;;;13.00;99893.00;;;;5017239;28;20241;-68
2022/04/05 11:50:42;;;;;;;4.30;3.00;;;;;12.90;99894.00;;;;5032552;28;20670;-66
2022/04/05 11:53:30;;;;;;;3.73;2.80;;;;;13.10;99893.00;;;;5037633;28;20227;-67
2022/04/05 11:56:20;;;;;;;4.70;3.13;;;;;13.20;99906.00;;;;5032199;28;20225;-67
2022/04/05 11:59:08;;;;;;;6.17;3.30;;;;;13.20;99878.00;;;;5022437;28;20212;-67
2022/04/05 12:01:56;;;;;;;3.67;2.93;;;;;13.20;99896.00;;;;5039018;28;20237;-65
2022/04/05 12:04:42;;;;;;;4.33;3.17;;;;;13.20;99900.00;;;;5036520;28;20241;-66
2022/04/05 12:07:33;;;;;;;5.27;3.57;;;;;13.10;99900.00;;;;5040730;28;20232;-66
2022/04/05 12:10:19;;;;;;;4.10;2.97;;;;;13.00;99886.00;;;;5034118;28;20229;-69
2022/04/05 12:13:06;;;;;;;4.07;3.07;;;;;13.00;99892.00;;;;5041026;28;20240;-69
2022/04/05 12:15:58;;;;;;;4.50;3.50;;;;;13.00;99894.00;;;;5034352;28;20236;-67
2022/04/05 12:18:49;;;;;;;5.10;3.33;;;;;13.20;99866.00;;;;5037695;28;20357;-65
2022/04/05 12:21:36;;;;;;;5.00;3.47;;;;;13.00;99895.00;;;;5037072;28;20256;-68
2022/04/05 12:24:32;;;;;;;4.17;3.23;;;;;13.20;99905.00;;;;5040868;28;20247;-68
2022/04/05 12:27:21;;;;;;;4.63;3.43;;;;;13.00;99904.00;;;;5013735;28;20221;-67
2022/04/05 12:30:10;;;;;;;4.90;3.57;;;;;13.20;99904.00;;;;5030946;28;20224;-66
2022/04/05 12:33:03;;;;;;;4.67;3.50;;;;;13.20;99902.00;;;;5021709;28;20235;-66
2022/04/05 12:35:51;;;;;;;6.07;4.20;;;;;13.10;99911.00;;;;5027825;28;20317;-64
2022/04/05 12:38:39;;;;;;;6.43;3.83;;;;;13.10;99900.00;;;;5010887;28;20357;-66
2022/04/05 12:41:26;;;;;;;6.93;3.97;;;;;13.20;99887.00;;;;5011607;28;20234;-66
2022/04/05 12:44:15;;;;;;;7.87;4.03;;;;;13.10;99903.00;;;;5030297;28;20268;-64
2022/04/05 12:47:07;;;;;;;6.70;4.40;;;;;13.00;99896.00;;;;5042412;28;20244;-66
2022/04/05 12:49:59;;;;;;;7.57;4.50;;;;;13.00;99886.00;;;;5038583;28;20233;-65
2022/04/05 12:53:01;;;;;;;4.70;3.80;;;;;12.80;99896.00;;;;5032545;28;20303;-65
2022/04/05 12:56:00;;;;;;;6.13;4.30;;;;;12.60;99907.00;;;;5037745;28;20303;-66
2022/04/05 12:58:49;;;;;;;5.97;4.27;;;;;12.60;99900.00;;;;5020868;28;20233;-66
2022/04/05 13:01:35;;;;;;;6.00;4.10;;;;;12.70;99906.00;;;;5037477;28;20265;-66
2022/04/05 13:04:23;;;;;;;5.93;4.17;;;;;12.90;99907.00;;;;5030882;28;20232;-65
2022/04/05 13:07:09;;;;;;;5.50;4.33;;;;;13.00;99901.00;;;;5039765;28;20304;-65
2022/04/05 13:09:56;;;;;;;7.40;4.60;;;;;13.50;99913.00;;;;5040028;28;20233;-67
2022/04/05 13:12:43;;;;;;;6.53;3.93;;;;;13.60;99898.00;;;;5019671;28;20616;-65
2022/04/05 13:15:29;;;;;;;6.67;4.40;;;;;13.70;99909.00;;;;5020829;28;20244;-64
2022/04/05 13:18:16;;;;;;;5.10;4.27;;;;;14.00;99907.00;;;;5017746;28;20303;-68
2022/04/05 13:21:04;;;;;;;7.13;4.70;;;;;13.90;99900.00;;;;5028500;28;20228;-66
2022/04/05 13:24:00;;;;;;;6.43;4.80;;;;;13.70;99905.00;;;;5037577;28;20237;-67
2022/04/05 13:26:49;;;;;;;6.43;4.23;;;;;13.70;99898.00;;;;5042210;28;20272;-70
2022/04/05 13:29:41;;;;;;;5.83;4.20;;;;;14.00;99893.00;;;;5038867;28;20271;-65
2022/04/05 13:32:27;;;;;;;6.17;4.13;;;;;13.70;99900.00;;;;5037994;28;20256;-69
2022/04/05 13:35:14;;;;;;;7.13;3.77;;;;;13.60;99889.00;;;;5027423;28;20574;-69
2022/04/05 13:38:00;;;;;;;5.43;4.57;;;;;13.90;99897.00;;;;5046067;28;20752;-69
2022/04/05 13:40:47;;;;;;;6.00;4.20;;;;;13.80;99891.00;;;;5041875;28;20233;-71
2022/04/05 13:43:37;;;;;;;6.97;4.30;;;;;13.80;99895.00;;;;5040784;28;20372;-72
2022/04/05 13:46:23;;;;;;;5.83;4.40;;;;;13.70;99893.00;;;;5035046;28;20721;-70
2022/04/05 13:49:14;;;;;;;6.00;4.37;;;;;13.40;99882.00;;;;5032342;28;20291;-69
2022/04/05 13:52:01;;;;;;;4.97;4.17;;;;;13.20;99875.00;;;;5039935;28;20326;-69
2022/04/05 13:55:08;;;;;;;5.87;3.93;;;;;13.10;99878.00;;;;5029575;28;20232;-70
2022/04/05 13:57:55;;;;;;;6.33;4.50;;;;;13.10;99877.00;;;;5039091;28;20240;-69
2022/04/05 14:00:42;;;;;;;6.93;4.63;;;;;13.10;99885.00;;;;5041651;28;20297;-68
2022/04/05 14:03:30;;;;;;;6.73;4.40;;;;;13.20;99879.00;;;;5036351;28;20357;-68
2022/04/05 14:06:16;;;;;;;7.07;4.63;;;;;13.10;99876.00;;;;5033735;28;20232;-68
2022/04/05 14:09:03;;;;;;;7.77;4.63;;;;;13.10;99877.00;;;;5026053;28;20609;-68